sensor_id;sensor_type;location;lat;lon;timestamp;P1;durP1;ratioP1;P2;durP2;ratioP2
48935;SDS011;34745;52.276;10.528;2023-01-30T00:01:56;24.37;;;14.77;;
48935;SDS011;34745;52.276;10.528;2023-01-30T00:04:23;26.90;;;15.63;;
48935;SDS011;34745;52.276;10.528;2023-01-30T00:06:50;30.37;;;17.17;;
48935;SDS011;34745;52.276;10.528;2023-01-30T00:09:18;25.80;;;15.43;;
48935;SDS011;34745;52.276;10.528;2023-01-30T00:11:46;26.10;;;15.70;;
48935;SDS011;34745;52.276;10.528;2023-01-30T00:14:13;27.57;;;16.17;;
48935;SDS011;34745;52.276;10.528;2023-01-30T00:16:40;23.57;;;15.63;;
48935;SDS011;34745;52.276;10.528;2023-01-30T00:19:08;26.03;;;15.10;;
48935;SDS011;34745;52.276;10.528;2023-01-30T00:21:35;26.13;;;16.60;;
48935;SDS011;34745;52.276;10.528;2023-01-30T00:24:02;31.73;;;17.70;;
48935;SDS011;34745;52.276;10.528;2023-01-30T00:26:30;29.03;;;17.60;;
48935;SDS011;34745;52.276;10.528;2023-01-30T00:28:59;26.00;;;15.40;;
48935;SDS011;34745;52.276;10.528;2023-01-30T00:31:26;24.77;;;15.87;;
48935;SDS011;34745;52.276;10.528;2023-01-30T00:33:53;26.87;;;15.77;;
48935;SDS011;34745;52.276;10.528;2023-01-30T00:36:20;27.47;;;16.70;;
48935;SDS011;34745;52.276;10.528;2023-01-30T00:38:47;25.93;;;15.80;;
48935;SDS011;34745;52.276;10.528;2023-01-30T00:41:14;22.43;;;13.47;;
48935;SDS011;34745;52.276;10.528;2023-01-30T00:43:42;23.13;;;11.93;;
48935;SDS011;34745;52.276;10.528;2023-01-30T00:46:30;22.23;;;13.73;;
48935;SDS011;34745;52.276;10.528;2023-01-30T00:49:16;25.00;;;14.17;;
48935;SDS011;34745;52.276;10.528;2023-01-30T00:51:44;20.70;;;10.07;;
48935;SDS011;34745;52.276;10.528;2023-01-30T00:54:11;24.00;;;13.40;;
48935;SDS011;34745;52.276;10.528;2023-01-30T00:56:38;23.17;;;14.70;;
48935;SDS011;34745;52.276;10.528;2023-01-30T00:59:06;26.37;;;17.23;;
48935;SDS011;34745;52.276;10.528;2023-01-30T01:01:34;22.90;;;15.60;;
48935;SDS011;34745;52.276;10.528;2023-01-30T01:04:03;26.03;;;15.13;;
48935;SDS011;34745;52.276;10.528;2023-01-30T01:06:31;26.83;;;14.63;;
48935;SDS011;34745;52.276;10.528;2023-01-30T01:08:59;27.47;;;15.33;;
48935;SDS011;34745;52.276;10.528;2023-01-30T01:11:26;28.00;;;16.60;;
48935;SDS011;34745;52.276;10.528;2023-01-30T01:13:53;27.60;;;16.23;;
48935;SDS011;34745;52.276;10.528;2023-01-30T01:16:22;26.43;;;15.07;;
48935;SDS011;34745;52.276;10.528;2023-01-30T01:18:51;25.30;;;14.70;;
48935;SDS011;34745;52.276;10.528;2023-01-30T01:21:19;25.33;;;13.37;;
48935;SDS011;34745;52.276;10.528;2023-01-30T01:23:48;28.93;;;16.17;;
48935;SDS011;34745;52.276;10.528;2023-01-30T01:26:15;23.43;;;12.60;;
48935;SDS011;34745;52.276;10.528;2023-01-30T01:28:43;25.00;;;14.17;;
48935;SDS011;34745;52.276;10.528;2023-01-30T01:31:10;29.67;;;15.63;;
48935;SDS011;34745;52.276;10.528;2023-01-30T01:33:39;22.63;;;14.50;;
48935;SDS011;34745;52.276;10.528;2023-01-30T01:36:08;20.87;;;13.13;;
48935;SDS011;34745;52.276;10.528;2023-01-30T01:38:35;27.10;;;16.40;;
48935;SDS011;34745;52.276;10.528;2023-01-30T01:41:03;25.07;;;14.63;;
48935;SDS011;34745;52.276;10.528;2023-01-30T01:43:32;26.13;;;16.03;;
48935;SDS011;34745;52.276;10.528;2023-01-30T01:46:03;26.50;;;16.10;;
48935;SDS011;34745;52.276;10.528;2023-01-30T01:48:36;29.87;;;19.13;;
48935;SDS011;34745;52.276;10.528;2023-01-30T01:51:09;24.87;;;15.63;;
48935;SDS011;34745;52.276;10.528;2023-01-30T01:53:42;31.30;;;18.40;;
48935;SDS011;34745;52.276;10.528;2023-01-30T01:56:16;30.23;;;17.73;;
48935;SDS011;34745;52.276;10.528;2023-01-30T01:58:46;31.40;;;18.83;;
48935;SDS011;34745;52.276;10.528;2023-01-30T02:01:16;23.73;;;14.97;;
48935;SDS011;34745;52.276;10.528;2023-01-30T02:03:44;29.20;;;17.07;;
48935;SDS011;34745;52.276;10.528;2023-01-30T02:06:16;25.57;;;15.77;;
48935;SDS011;34745;52.276;10.528;2023-01-30T02:08:45;31.60;;;18.53;;
48935;SDS011;34745;52.276;10.528;2023-01-30T02:11:16;29.13;;;18.23;;
48935;SDS011;34745;52.276;10.528;2023-01-30T02:14:05;31.97;;;19.23;;
48935;SDS011;34745;52.276;10.528;2023-01-30T02:16:34;31.17;;;18.47;;
48935;SDS011;34745;52.276;10.528;2023-01-30T02:19:02;34.23;;;19.73;;
48935;SDS011;34745;52.276;10.528;2023-01-30T02:24:36;27.63;;;14.93;;
48935;SDS011;34745;52.276;10.528;2023-01-30T02:27:38;30.63;;;18.47;;
48935;SDS011;34745;52.276;10.528;2023-01-30T02:30:41;32.37;;;18.83;;
48935;SDS011;34745;52.276;10.528;2023-01-30T02:33:19;35.57;;;20.63;;
48935;SDS011;34745;52.276;10.528;2023-01-30T02:35:54;28.87;;;18.20;;
48935;SDS011;34745;52.276;10.528;2023-01-30T02:38:30;31.20;;;18.40;;
48935;SDS011;34745;52.276;10.528;2023-01-30T02:41:09;24.30;;;14.10;;
48935;SDS011;34745;52.276;10.528;2023-01-30T02:43:45;35.00;;;20.53;;
48935;SDS011;34745;52.276;10.528;2023-01-30T02:46:24;26.67;;;15.87;;
48935;SDS011;34745;52.276;10.528;2023-01-30T02:48:58;30.90;;;18.87;;
48935;SDS011;34745;52.276;10.528;2023-01-30T02:51:32;30.13;;;18.90;;
48935;SDS011;34745;52.276;10.528;2023-01-30T02:54:04;32.17;;;19.67;;
48935;SDS011;34745;52.276;10.528;2023-01-30T02:56:41;29.97;;;18.70;;
48935;SDS011;34745;52.276;10.528;2023-01-30T02:59:11;34.43;;;19.73;;
48935;SDS011;34745;52.276;10.528;2023-01-30T03:04:50;30.47;;;17.40;;
48935;SDS011;34745;52.276;10.528;2023-01-30T03:07:31;30.60;;;16.90;;
48935;SDS011;34745;52.276;10.528;2023-01-30T03:10:10;30.17;;;16.50;;
48935;SDS011;34745;52.276;10.528;2023-01-30T03:12:44;29.93;;;18.17;;
48935;SDS011;34745;52.276;10.528;2023-01-30T03:15:21;23.37;;;13.23;;
48935;SDS011;34745;52.276;10.528;2023-01-30T03:17:52;25.90;;;15.83;;
48935;SDS011;34745;52.276;10.528;2023-01-30T03:20:22;28.07;;;17.03;;
48935;SDS011;34745;52.276;10.528;2023-01-30T03:22:49;27.93;;;16.47;;
48935;SDS011;34745;52.276;10.528;2023-01-30T03:25:18;27.73;;;16.87;;
48935;SDS011;34745;52.276;10.528;2023-01-30T03:27:49;27.23;;;16.93;;
48935;SDS011;34745;52.276;10.528;2023-01-30T03:30:18;29.20;;;17.27;;
48935;SDS011;34745;52.276;10.528;2023-01-30T03:32:46;28.47;;;17.33;;
48935;SDS011;34745;52.276;10.528;2023-01-30T03:35:13;28.80;;;16.53;;
48935;SDS011;34745;52.276;10.528;2023-01-30T03:37:45;26.20;;;15.73;;
48935;SDS011;34745;52.276;10.528;2023-01-30T03:40:13;26.90;;;14.00;;
48935;SDS011;34745;52.276;10.528;2023-01-30T03:42:41;24.40;;;14.73;;
48935;SDS011;34745;52.276;10.528;2023-01-30T03:45:09;27.13;;;16.43;;
48935;SDS011;34745;52.276;10.528;2023-01-30T03:47:37;20.83;;;12.40;;
48935;SDS011;34745;52.276;10.528;2023-01-30T03:50:05;23.07;;;14.00;;
48935;SDS011;34745;52.276;10.528;2023-01-30T03:52:33;24.30;;;13.27;;
48935;SDS011;34745;52.276;10.528;2023-01-30T03:55:02;22.07;;;13.10;;
48935;SDS011;34745;52.276;10.528;2023-01-30T03:57:30;20.17;;;11.63;;
48935;SDS011;34745;52.276;10.528;2023-01-30T03:59:57;36.60;;;15.23;;
48935;SDS011;34745;52.276;10.528;2023-01-30T04:02:24;20.23;;;13.20;;
48935;SDS011;34745;52.276;10.528;2023-01-30T04:04:52;29.57;;;17.90;;
48935;SDS011;34745;52.276;10.528;2023-01-30T04:07:19;27.77;;;16.13;;
48935;SDS011;34745;52.276;10.528;2023-01-30T04:09:46;21.30;;;12.73;;
48935;SDS011;34745;52.276;10.528;2023-01-30T04:12:14;25.53;;;15.07;;
48935;SDS011;34745;52.276;10.528;2023-01-30T04:14:42;28.33;;;16.90;;
48935;SDS011;34745;52.276;10.528;2023-01-30T04:17:09;32.50;;;19.53;;
48935;SDS011;34745;52.276;10.528;2023-01-30T04:19:36;36.43;;;19.03;;
48935;SDS011;34745;52.276;10.528;2023-01-30T04:22:03;25.43;;;14.13;;
48935;SDS011;34745;52.276;10.528;2023-01-30T04:24:30;28.93;;;17.53;;
48935;SDS011;34745;52.276;10.528;2023-01-30T04:26:57;23.57;;;13.10;;
48935;SDS011;34745;52.276;10.528;2023-01-30T04:29:26;30.77;;;20.17;;
48935;SDS011;34745;52.276;10.528;2023-01-30T04:31:53;34.93;;;18.57;;
48935;SDS011;34745;52.276;10.528;2023-01-30T04:34:20;30.33;;;18.67;;
48935;SDS011;34745;52.276;10.528;2023-01-30T04:36:47;35.57;;;20.63;;
48935;SDS011;34745;52.276;10.528;2023-01-30T04:39:14;34.13;;;19.13;;
48935;SDS011;34745;52.276;10.528;2023-01-30T04:41:41;26.87;;;16.70;;
48935;SDS011;34745;52.276;10.528;2023-01-30T04:44:08;27.97;;;15.00;;
48935;SDS011;34745;52.276;10.528;2023-01-30T04:46:37;37.83;;;21.43;;
48935;SDS011;34745;52.276;10.528;2023-01-30T04:49:04;40.07;;;21.37;;
48935;SDS011;34745;52.276;10.528;2023-01-30T04:51:31;34.90;;;19.03;;
48935;SDS011;34745;52.276;10.528;2023-01-30T04:53:58;33.97;;;17.73;;
48935;SDS011;34745;52.276;10.528;2023-01-30T04:56:25;29.30;;;14.00;;
48935;SDS011;34745;52.276;10.528;2023-01-30T04:58:53;32.77;;;18.77;;
48935;SDS011;34745;52.276;10.528;2023-01-30T05:01:21;30.00;;;16.93;;
48935;SDS011;34745;52.276;10.528;2023-01-30T05:03:52;28.60;;;14.70;;
48935;SDS011;34745;52.276;10.528;2023-01-30T05:06:20;30.13;;;17.50;;
48935;SDS011;34745;52.276;10.528;2023-01-30T05:08:48;26.17;;;16.57;;
48935;SDS011;34745;52.276;10.528;2023-01-30T05:11:15;25.07;;;14.70;;
48935;SDS011;34745;52.276;10.528;2023-01-30T05:13:43;22.87;;;14.53;;
48935;SDS011;34745;52.276;10.528;2023-01-30T05:16:10;27.63;;;17.63;;
48935;SDS011;34745;52.276;10.528;2023-01-30T05:18:39;22.47;;;14.27;;
48935;SDS011;34745;52.276;10.528;2023-01-30T05:21:09;27.07;;;14.80;;
48935;SDS011;34745;52.276;10.528;2023-01-30T05:23:37;23.40;;;14.07;;
48935;SDS011;34745;52.276;10.528;2023-01-30T05:26:04;23.97;;;15.27;;
48935;SDS011;34745;52.276;10.528;2023-01-30T05:28:32;22.97;;;14.57;;
48935;SDS011;34745;52.276;10.528;2023-01-30T05:31:00;23.50;;;13.63;;
48935;SDS011;34745;52.276;10.528;2023-01-30T05:33:28;25.07;;;15.33;;
48935;SDS011;34745;52.276;10.528;2023-01-30T05:35:55;18.10;;;11.60;;
48935;SDS011;34745;52.276;10.528;2023-01-30T05:38:24;20.43;;;12.47;;
48935;SDS011;34745;52.276;10.528;2023-01-30T05:40:58;26.40;;;13.77;;
48935;SDS011;34745;52.276;10.528;2023-01-30T05:43:27;17.40;;;10.97;;
48935;SDS011;34745;52.276;10.528;2023-01-30T05:45:54;16.97;;;9.63;;
48935;SDS011;34745;52.276;10.528;2023-01-30T05:48:23;16.60;;;9.83;;
48935;SDS011;34745;52.276;10.528;2023-01-30T05:50:51;16.27;;;11.10;;
48935;SDS011;34745;52.276;10.528;2023-01-30T05:53:19;19.07;;;11.93;;
48935;SDS011;34745;52.276;10.528;2023-01-30T05:55:54;16.30;;;9.80;;
48935;SDS011;34745;52.276;10.528;2023-01-30T05:58:22;15.53;;;9.40;;
48935;SDS011;34745;52.276;10.528;2023-01-30T06:00:49;12.67;;;9.27;;
48935;SDS011;34745;52.276;10.528;2023-01-30T06:03:17;15.93;;;10.00;;
48935;SDS011;34745;52.276;10.528;2023-01-30T06:05:44;16.53;;;11.50;;
48935;SDS011;34745;52.276;10.528;2023-01-30T06:08:12;17.50;;;11.13;;
48935;SDS011;34745;52.276;10.528;2023-01-30T06:10:39;13.70;;;7.73;;
48935;SDS011;34745;52.276;10.528;2023-01-30T06:13:07;16.83;;;11.10;;
48935;SDS011;34745;52.276;10.528;2023-01-30T06:15:37;17.17;;;10.80;;
48935;SDS011;34745;52.276;10.528;2023-01-30T06:18:05;13.60;;;8.60;;
48935;SDS011;34745;52.276;10.528;2023-01-30T06:20:32;15.67;;;10.10;;
48935;SDS011;34745;52.276;10.528;2023-01-30T06:22:59;12.57;;;8.33;;
48935;SDS011;34745;52.276;10.528;2023-01-30T06:25:26;15.50;;;11.80;;
48935;SDS011;34745;52.276;10.528;2023-01-30T06:27:53;10.73;;;7.10;;
48935;SDS011;34745;52.276;10.528;2023-01-30T06:30:22;14.63;;;8.90;;
48935;SDS011;34745;52.276;10.528;2023-01-30T06:32:49;15.33;;;10.03;;
48935;SDS011;34745;52.276;10.528;2023-01-30T06:35:16;12.40;;;9.43;;
48935;SDS011;34745;52.276;10.528;2023-01-30T06:37:44;10.50;;;7.57;;
48935;SDS011;34745;52.276;10.528;2023-01-30T06:40:11;12.07;;;9.07;;
48935;SDS011;34745;52.276;10.528;2023-01-30T06:42:42;11.43;;;8.37;;
48935;SDS011;34745;52.276;10.528;2023-01-30T06:45:10;10.97;;;7.53;;
48935;SDS011;34745;52.276;10.528;2023-01-30T06:47:44;9.90;;;7.47;;
48935;SDS011;34745;52.276;10.528;2023-01-30T06:50:12;12.00;;;8.37;;
48935;SDS011;34745;52.276;10.528;2023-01-30T06:52:40;11.63;;;6.70;;
48935;SDS011;34745;52.276;10.528;2023-01-30T06:55:08;11.87;;;7.87;;
48935;SDS011;34745;52.276;10.528;2023-01-30T06:57:37;9.73;;;6.27;;
48935;SDS011;34745;52.276;10.528;2023-01-30T07:00:04;8.43;;;5.23;;
48935;SDS011;34745;52.276;10.528;2023-01-30T07:02:33;10.13;;;6.33;;
48935;SDS011;34745;52.276;10.528;2023-01-30T07:05:02;8.33;;;6.07;;
48935;SDS011;34745;52.276;10.528;2023-01-30T07:07:31;8.23;;;5.00;;
48935;SDS011;34745;52.276;10.528;2023-01-30T07:09:58;6.60;;;4.30;;
48935;SDS011;34745;52.276;10.528;2023-01-30T07:12:33;8.77;;;5.60;;
48935;SDS011;34745;52.276;10.528;2023-01-30T07:15:01;8.43;;;5.77;;
48935;SDS011;34745;52.276;10.528;2023-01-30T07:17:29;8.17;;;6.27;;
48935;SDS011;34745;52.276;10.528;2023-01-30T07:19:56;8.93;;;5.50;;
48935;SDS011;34745;52.276;10.528;2023-01-30T07:22:24;7.87;;;5.77;;
48935;SDS011;34745;52.276;10.528;2023-01-30T07:24:52;9.60;;;6.00;;
48935;SDS011;34745;52.276;10.528;2023-01-30T07:27:19;14.37;;;7.03;;
48935;SDS011;34745;52.276;10.528;2023-01-30T07:29:46;11.40;;;7.33;;
48935;SDS011;34745;52.276;10.528;2023-01-30T07:32:13;11.57;;;7.00;;
48935;SDS011;34745;52.276;10.528;2023-01-30T07:34:41;12.07;;;7.13;;
48935;SDS011;34745;52.276;10.528;2023-01-30T07:37:09;8.47;;;7.10;;
48935;SDS011;34745;52.276;10.528;2023-01-30T07:39:37;9.47;;;6.80;;
48935;SDS011;34745;52.276;10.528;2023-01-30T07:42:04;8.80;;;5.20;;
48935;SDS011;34745;52.276;10.528;2023-01-30T07:44:31;11.40;;;5.83;;
48935;SDS011;34745;52.276;10.528;2023-01-30T07:46:59;11.80;;;5.60;;
48935;SDS011;34745;52.276;10.528;2023-01-30T07:49:26;14.33;;;6.37;;
48935;SDS011;34745;52.276;10.528;2023-01-30T07:51:54;13.00;;;5.43;;
48935;SDS011;34745;52.276;10.528;2023-01-30T07:54:21;11.83;;;4.67;;
48935;SDS011;34745;52.276;10.528;2023-01-30T07:56:49;11.73;;;4.73;;
48935;SDS011;34745;52.276;10.528;2023-01-30T07:59:16;14.10;;;4.20;;
48935;SDS011;34745;52.276;10.528;2023-01-30T08:01:43;18.83;;;4.73;;
48935;SDS011;34745;52.276;10.528;2023-01-30T08:04:10;17.33;;;3.67;;
48935;SDS011;34745;52.276;10.528;2023-01-30T08:06:38;9.43;;;3.87;;
48935;SDS011;34745;52.276;10.528;2023-01-30T08:09:05;14.33;;;3.87;;
48935;SDS011;34745;52.276;10.528;2023-01-30T08:11:33;18.20;;;4.37;;
48935;SDS011;34745;52.276;10.528;2023-01-30T08:14:02;12.23;;;3.90;;
48935;SDS011;34745;52.276;10.528;2023-01-30T08:16:29;17.03;;;4.47;;
48935;SDS011;34745;52.276;10.528;2023-01-30T08:18:57;22.20;;;4.53;;
48935;SDS011;34745;52.276;10.528;2023-01-30T08:21:25;18.67;;;4.53;;
48935;SDS011;34745;52.276;10.528;2023-01-30T08:23:52;20.83;;;3.97;;
48935;SDS011;34745;52.276;10.528;2023-01-30T08:26:19;19.00;;;4.37;;
48935;SDS011;34745;52.276;10.528;2023-01-30T08:28:47;16.23;;;4.63;;
48935;SDS011;34745;52.276;10.528;2023-01-30T08:31:16;15.23;;;3.77;;
48935;SDS011;34745;52.276;10.528;2023-01-30T08:33:43;12.53;;;3.73;;
48935;SDS011;34745;52.276;10.528;2023-01-30T08:36:10;17.07;;;4.00;;
48935;SDS011;34745;52.276;10.528;2023-01-30T08:38:37;16.30;;;3.30;;
48935;SDS011;34745;52.276;10.528;2023-01-30T08:41:05;17.80;;;3.80;;
48935;SDS011;34745;52.276;10.528;2023-01-30T08:43:33;16.80;;;3.80;;
48935;SDS011;34745;52.276;10.528;2023-01-30T08:46:01;19.83;;;3.50;;
48935;SDS011;34745;52.276;10.528;2023-01-30T08:48:30;17.63;;;3.37;;
48935;SDS011;34745;52.276;10.528;2023-01-30T08:51:14;15.33;;;3.60;;
48935;SDS011;34745;52.276;10.528;2023-01-30T08:53:41;15.60;;;3.53;;
48935;SDS011;34745;52.276;10.528;2023-01-30T08:56:08;15.53;;;3.30;;
48935;SDS011;34745;52.276;10.528;2023-01-30T08:58:35;16.00;;;3.40;;
48935;SDS011;34745;52.276;10.528;2023-01-30T09:01:06;18.23;;;3.73;;
48935;SDS011;34745;52.276;10.528;2023-01-30T09:03:34;13.37;;;3.10;;
48935;SDS011;34745;52.276;10.528;2023-01-30T09:06:01;21.63;;;3.63;;
48935;SDS011;34745;52.276;10.528;2023-01-30T09:08:28;16.00;;;3.47;;
48935;SDS011;34745;52.276;10.528;2023-01-30T09:10:56;15.17;;;3.87;;
48935;SDS011;34745;52.276;10.528;2023-01-30T09:13:23;28.67;;;4.87;;
48935;SDS011;34745;52.276;10.528;2023-01-30T09:15:51;16.27;;;3.67;;
48935;SDS011;34745;52.276;10.528;2023-01-30T09:18:18;15.50;;;3.30;;
48935;SDS011;34745;52.276;10.528;2023-01-30T09:20:47;13.30;;;3.80;;
48935;SDS011;34745;52.276;10.528;2023-01-30T09:23:14;23.07;;;4.43;;
48935;SDS011;34745;52.276;10.528;2023-01-30T09:25:43;9.20;;;2.73;;
48935;SDS011;34745;52.276;10.528;2023-01-30T09:28:10;18.87;;;4.13;;
48935;SDS011;34745;52.276;10.528;2023-01-30T09:30:37;24.27;;;3.47;;
48935;SDS011;34745;52.276;10.528;2023-01-30T09:33:05;17.27;;;3.37;;
48935;SDS011;34745;52.276;10.528;2023-01-30T09:35:32;23.47;;;4.13;;
48935;SDS011;34745;52.276;10.528;2023-01-30T09:38:00;25.37;;;3.20;;
48935;SDS011;34745;52.276;10.528;2023-01-30T09:40:30;15.67;;;3.43;;
48935;SDS011;34745;52.276;10.528;2023-01-30T09:43:01;24.13;;;4.00;;
48935;SDS011;34745;52.276;10.528;2023-01-30T09:45:44;33.13;;;4.03;;
48935;SDS011;34745;52.276;10.528;2023-01-30T09:48:24;17.00;;;3.67;;
48935;SDS011;34745;52.276;10.528;2023-01-30T09:51:08;18.97;;;3.77;;
48935;SDS011;34745;52.276;10.528;2023-01-30T09:53:48;26.13;;;3.93;;
48935;SDS011;34745;52.276;10.528;2023-01-30T09:56:26;19.07;;;3.50;;
48935;SDS011;34745;52.276;10.528;2023-01-30T09:58:53;13.03;;;3.27;;
48935;SDS011;34745;52.276;10.528;2023-01-30T10:01:24;9.93;;;2.40;;
48935;SDS011;34745;52.276;10.528;2023-01-30T10:04:01;21.90;;;4.07;;
48935;SDS011;34745;52.276;10.528;2023-01-30T10:06:35;17.70;;;3.67;;
48935;SDS011;34745;52.276;10.528;2023-01-30T10:09:10;22.87;;;4.27;;
48935;SDS011;34745;52.276;10.528;2023-01-30T10:11:53;17.33;;;3.23;;
48935;SDS011;34745;52.276;10.528;2023-01-30T10:14:38;11.13;;;3.07;;
48935;SDS011;34745;52.276;10.528;2023-01-30T10:17:28;26.37;;;3.73;;
48935;SDS011;34745;52.276;10.528;2023-01-30T10:20:05;13.47;;;3.17;;
48935;SDS011;34745;52.276;10.528;2023-01-30T10:22:48;23.13;;;3.83;;
48935;SDS011;34745;52.276;10.528;2023-01-30T10:25:30;20.10;;;5.57;;
48935;SDS011;34745;52.276;10.528;2023-01-30T10:28:05;18.07;;;3.43;;
48935;SDS011;34745;52.276;10.528;2023-01-30T10:30:37;12.87;;;3.23;;
48935;SDS011;34745;52.276;10.528;2023-01-30T10:33:06;16.70;;;3.67;;
48935;SDS011;34745;52.276;10.528;2023-01-30T10:35:41;13.70;;;3.03;;
48935;SDS011;34745;52.276;10.528;2023-01-30T10:38:11;15.43;;;3.10;;
48935;SDS011;34745;52.276;10.528;2023-01-30T10:40:48;20.80;;;3.77;;
48935;SDS011;34745;52.276;10.528;2023-01-30T10:43:25;28.67;;;4.43;;
48935;SDS011;34745;52.276;10.528;2023-01-30T10:45:59;22.37;;;3.80;;
48935;SDS011;34745;52.276;10.528;2023-01-30T10:48:41;15.80;;;2.53;;
48935;SDS011;34745;52.276;10.528;2023-01-30T10:51:33;18.17;;;4.13;;
48935;SDS011;34745;52.276;10.528;2023-01-30T10:54:08;18.17;;;3.80;;
48935;SDS011;34745;52.276;10.528;2023-01-30T10:56:42;14.60;;;2.93;;
48935;SDS011;34745;52.276;10.528;2023-01-30T10:59:23;19.13;;;3.57;;
48935;SDS011;34745;52.276;10.528;2023-01-30T11:01:58;19.50;;;3.30;;
48935;SDS011;34745;52.276;10.528;2023-01-30T11:04:33;15.30;;;3.47;;
48935;SDS011;34745;52.276;10.528;2023-01-30T11:07:06;25.63;;;3.63;;
48935;SDS011;34745;52.276;10.528;2023-01-30T11:09:38;16.30;;;4.10;;
48935;SDS011;34745;52.276;10.528;2023-01-30T11:12:08;18.83;;;3.77;;
48935;SDS011;34745;52.276;10.528;2023-01-30T11:14:49;18.23;;;3.27;;
48935;SDS011;34745;52.276;10.528;2023-01-30T11:17:19;21.20;;;4.00;;
48935;SDS011;34745;52.276;10.528;2023-01-30T11:19:53;24.30;;;4.50;;
48935;SDS011;34745;52.276;10.528;2023-01-30T11:22:22;11.10;;;3.30;;
48935;SDS011;34745;52.276;10.528;2023-01-30T11:24:59;17.80;;;3.60;;
48935;SDS011;34745;52.276;10.528;2023-01-30T11:27:30;24.43;;;4.23;;
48935;SDS011;34745;52.276;10.528;2023-01-30T11:30:02;13.00;;;3.27;;
48935;SDS011;34745;52.276;10.528;2023-01-30T11:32:38;17.50;;;3.87;;
48935;SDS011;34745;52.276;10.528;2023-01-30T11:35:18;12.23;;;2.90;;
48935;SDS011;34745;52.276;10.528;2023-01-30T11:37:49;19.17;;;4.03;;
48935;SDS011;34745;52.276;10.528;2023-01-30T11:40:22;13.97;;;2.83;;
48935;SDS011;34745;52.276;10.528;2023-01-30T11:42:58;20.20;;;3.10;;
48935;SDS011;34745;52.276;10.528;2023-01-30T11:45:32;16.87;;;3.00;;
48935;SDS011;34745;52.276;10.528;2023-01-30T11:48:03;18.93;;;3.00;;
48935;SDS011;34745;52.276;10.528;2023-01-30T11:50:54;20.80;;;3.70;;
48935;SDS011;34745;52.276;10.528;2023-01-30T11:53:28;13.13;;;3.07;;
48935;SDS011;34745;52.276;10.528;2023-01-30T11:56:02;9.97;;;2.00;;
48935;SDS011;34745;52.276;10.528;2023-01-30T11:58:37;15.37;;;3.40;;
48935;SDS011;34745;52.276;10.528;2023-01-30T12:01:07;12.80;;;3.13;;
48935;SDS011;34745;52.276;10.528;2023-01-30T12:03:37;16.33;;;2.80;;
48935;SDS011;34745;52.276;10.528;2023-01-30T12:06:10;16.87;;;2.97;;
48935;SDS011;34745;52.276;10.528;2023-01-30T12:08:46;15.30;;;3.20;;
48935;SDS011;34745;52.276;10.528;2023-01-30T12:11:26;14.47;;;3.17;;
48935;SDS011;34745;52.276;10.528;2023-01-30T12:13:58;13.50;;;2.90;;
48935;SDS011;34745;52.276;10.528;2023-01-30T12:16:39;12.57;;;2.97;;
48935;SDS011;34745;52.276;10.528;2023-01-30T12:19:16;16.20;;;3.30;;
48935;SDS011;34745;52.276;10.528;2023-01-30T12:21:54;14.53;;;3.67;;
48935;SDS011;34745;52.276;10.528;2023-01-30T12:24:26;18.60;;;3.30;;
48935;SDS011;34745;52.276;10.528;2023-01-30T12:26:59;17.17;;;3.23;;
48935;SDS011;34745;52.276;10.528;2023-01-30T12:29:32;16.23;;;3.37;;
48935;SDS011;34745;52.276;10.528;2023-01-30T12:32:04;24.50;;;3.50;;
48935;SDS011;34745;52.276;10.528;2023-01-30T12:34:34;19.07;;;2.93;;
48935;SDS011;34745;52.276;10.528;2023-01-30T12:37:10;25.43;;;3.67;;
48935;SDS011;34745;52.276;10.528;2023-01-30T12:39:55;17.03;;;3.90;;
48935;SDS011;34745;52.276;10.528;2023-01-30T12:42:34;17.33;;;3.03;;
48935;SDS011;34745;52.276;10.528;2023-01-30T12:45:20;8.30;;;2.87;;
48935;SDS011;34745;52.276;10.528;2023-01-30T12:48:01;12.80;;;2.63;;
48935;SDS011;34745;52.276;10.528;2023-01-30T12:50:51;15.47;;;3.63;;
48935;SDS011;34745;52.276;10.528;2023-01-30T12:53:30;8.13;;;2.47;;
48935;SDS011;34745;52.276;10.528;2023-01-30T12:58:58;6.30;;;1.80;;
48935;SDS011;34745;52.276;10.528;2023-01-30T13:01:35;9.63;;;1.90;;
48935;SDS011;34745;52.276;10.528;2023-01-30T13:04:14;7.83;;;1.83;;
48935;SDS011;34745;52.276;10.528;2023-01-30T13:06:51;8.60;;;1.97;;
48935;SDS011;34745;52.276;10.528;2023-01-30T13:09:35;4.87;;;1.73;;
48935;SDS011;34745;52.276;10.528;2023-01-30T13:12:12;4.30;;;1.60;;
48935;SDS011;34745;52.276;10.528;2023-01-30T13:14:47;5.73;;;1.80;;
48935;SDS011;34745;52.276;10.528;2023-01-30T13:17:36;5.67;;;1.70;;
48935;SDS011;34745;52.276;10.528;2023-01-30T13:20:26;5.30;;;1.70;;
48935;SDS011;34745;52.276;10.528;2023-01-30T13:23:14;6.37;;;1.77;;
48935;SDS011;34745;52.276;10.528;2023-01-30T13:25:46;12.03;;;2.57;;
48935;SDS011;34745;52.276;10.528;2023-01-30T13:28:24;16.30;;;3.57;;
48935;SDS011;34745;52.276;10.528;2023-01-30T13:30:54;13.60;;;2.50;;
48935;SDS011;34745;52.276;10.528;2023-01-30T13:33:24;11.10;;;2.50;;
48935;SDS011;34745;52.276;10.528;2023-01-30T13:36:01;14.97;;;2.70;;
48935;SDS011;34745;52.276;10.528;2023-01-30T13:38:33;15.13;;;3.60;;
48935;SDS011;34745;52.276;10.528;2023-01-30T13:41:06;13.67;;;3.10;;
48935;SDS011;34745;52.276;10.528;2023-01-30T13:43:39;22.57;;;3.00;;
48935;SDS011;34745;52.276;10.528;2023-01-30T13:46:10;16.90;;;3.23;;
48935;SDS011;34745;52.276;10.528;2023-01-30T13:48:48;13.90;;;2.47;;
48935;SDS011;34745;52.276;10.528;2023-01-30T13:51:28;14.97;;;3.20;;
48935;SDS011;34745;52.276;10.528;2023-01-30T13:54:05;14.60;;;3.47;;
48935;SDS011;34745;52.276;10.528;2023-01-30T13:56:38;8.77;;;2.90;;
48935;SDS011;34745;52.276;10.528;2023-01-30T13:59:10;10.30;;;2.67;;
48935;SDS011;34745;52.276;10.528;2023-01-30T14:04:42;11.10;;;2.23;;
48935;SDS011;34745;52.276;10.528;2023-01-30T14:07:15;15.67;;;3.60;;
48935;SDS011;34745;52.276;10.528;2023-01-30T14:09:48;14.87;;;2.83;;
48935;SDS011;34745;52.276;10.528;2023-01-30T14:12:27;17.67;;;3.73;;
48935;SDS011;34745;52.276;10.528;2023-01-30T14:15:01;16.23;;;2.90;;
48935;SDS011;34745;52.276;10.528;2023-01-30T14:17:30;19.63;;;4.43;;
48935;SDS011;34745;52.276;10.528;2023-01-30T14:20:00;22.60;;;3.73;;
48935;SDS011;34745;52.276;10.528;2023-01-30T14:22:34;16.93;;;2.70;;
48935;SDS011;34745;52.276;10.528;2023-01-30T14:25:28;19.30;;;3.97;;
48935;SDS011;34745;52.276;10.528;2023-01-30T14:34:37;13.60;;;3.30;;
48935;SDS011;34745;52.276;10.528;2023-01-30T14:40:32;17.03;;;3.27;;
48935;SDS011;34745;52.276;10.528;2023-01-30T14:46:05;14.13;;;3.50;;
48935;SDS011;34745;52.276;10.528;2023-01-30T14:48:52;16.73;;;3.00;;
48935;SDS011;34745;52.276;10.528;2023-01-30T14:51:23;18.60;;;3.60;;
48935;SDS011;34745;52.276;10.528;2023-01-30T14:53:55;14.90;;;3.23;;
48935;SDS011;34745;52.276;10.528;2023-01-30T14:56:39;17.70;;;3.20;;
48935;SDS011;34745;52.276;10.528;2023-01-30T14:59:16;20.47;;;4.10;;
48935;SDS011;34745;52.276;10.528;2023-01-30T15:02:05;17.40;;;3.43;;
48935;SDS011;34745;52.276;10.528;2023-01-30T15:04:47;15.53;;;3.27;;
48935;SDS011;34745;52.276;10.528;2023-01-30T15:07:21;15.90;;;2.83;;
48935;SDS011;34745;52.276;10.528;2023-01-30T15:09:52;16.30;;;3.00;;